sensor_id;sensor_type;location;lat;lon;timestamp;pressure;altitude;pressure_sealevel;temperature;humidity
55277;BME280;41136;51.478;-2.610;2023-08-31T00:00:35;100185.37;;;18.19;74.76
55277;BME280;41136;51.478;-2.610;2023-08-31T00:02:59;100184.48;;;17.07;76.62
55277;BME280;41136;51.478;-2.610;2023-08-31T00:05:25;100188.46;;;16.28;81.14
55277;BME280;41136;51.478;-2.610;2023-08-31T00:13:07;100175.12;;;17.29;74.88
55277;BME280;41136;51.478;-2.610;2023-08-31T00:15:32;100179.90;;;17.75;73.91
55277;BME280;41136;51.478;-2.610;2023-08-31T00:17:57;100175.24;;;17.42;73.68
55277;BME280;41136;51.478;-2.610;2023-08-31T00:20:22;100173.16;;;17.43;72.66
55277;BME280;41136;51.478;-2.610;2023-08-31T00:22:48;100173.39;;;18.27;72.24
55277;BME280;41136;51.478;-2.610;2023-08-31T00:25:13;100170.05;;;18.28;72.86
55277;BME280;41136;51.478;-2.610;2023-08-31T00:27:38;100164.64;;;18.18;73.33
55277;BME280;41136;51.478;-2.610;2023-08-31T00:30:05;100165.82;;;18.00;74.02
55277;BME280;41136;51.478;-2.610;2023-08-31T00:32:29;100161.43;;;18.17;74.44
55277;BME280;41136;51.478;-2.610;2023-08-31T00:34:54;100159.58;;;17.81;74.82
55277;BME280;41136;51.478;-2.610;2023-08-31T00:37:20;100157.40;;;17.55;75.64
55277;BME280;41136;51.478;-2.610;2023-08-31T00:39:45;100156.71;;;17.86;76.08
55277;BME280;41136;51.478;-2.610;2023-08-31T00:42:13;100153.67;;;17.93;76.58
55277;BME280;41136;51.478;-2.610;2023-08-31T00:44:37;100152.30;;;17.62;77.15
55277;BME280;41136;51.478;-2.610;2023-08-31T00:47:02;100149.85;;;17.68;76.98
55277;BME280;41136;51.478;-2.610;2023-08-31T00:49:28;100153.15;;;18.13;76.80
55277;BME280;41136;51.478;-2.610;2023-08-31T00:51:53;100154.14;;;17.68;76.41
55277;BME280;41136;51.478;-2.610;2023-08-31T00:54:19;100155.67;;;17.93;76.67
55277;BME280;41136;51.478;-2.610;2023-08-31T00:56:44;100153.96;;;17.76;77.73
55277;BME280;41136;51.478;-2.610;2023-08-31T00:59:09;100151.30;;;17.79;78.32
55277;BME280;41136;51.478;-2.610;2023-08-31T01:01:37;100148.20;;;17.61;78.86
55277;BME280;41136;51.478;-2.610;2023-08-31T01:04:08;100144.72;;;17.96;78.44
55277;BME280;41136;51.478;-2.610;2023-08-31T01:06:35;100143.28;;;17.73;78.37
55277;BME280;41136;51.478;-2.610;2023-08-31T01:08:56;100146.11;;;17.40;78.36
55277;BME280;41136;51.478;-2.610;2023-08-31T01:11:24;100144.98;;;17.73;78.05
55277;BME280;41136;51.478;-2.610;2023-08-31T01:13:46;100140.84;;;17.78;78.60
55277;BME280;41136;51.478;-2.610;2023-08-31T01:16:08;100142.30;;;17.96;78.85
55277;BME280;41136;51.478;-2.610;2023-08-31T01:18:33;100138.45;;;18.04;78.40
55277;BME280;41136;51.478;-2.610;2023-08-31T01:21:05;100134.24;;;16.28;83.62
55277;BME280;41136;51.478;-2.610;2023-08-31T01:23:29;100130.97;;;16.00;87.56
55277;BME280;41136;51.478;-2.610;2023-08-31T01:25:49;100127.10;;;16.28;88.03
55277;BME280;41136;51.478;-2.610;2023-08-31T01:28:14;100124.67;;;16.33;87.32
55277;BME280;41136;51.478;-2.610;2023-08-31T01:30:39;100124.92;;;16.35;87.64
55277;BME280;41136;51.478;-2.610;2023-08-31T01:33:05;100123.80;;;16.40;87.57
55277;BME280;41136;51.478;-2.610;2023-08-31T01:35:35;100121.24;;;16.37;88.28
55277;BME280;41136;51.478;-2.610;2023-08-31T01:37:57;100120.51;;;16.39;88.94
55277;BME280;41136;51.478;-2.610;2023-08-31T01:40:25;100123.76;;;16.32;90.98
55277;BME280;41136;51.478;-2.610;2023-08-31T01:42:47;100121.42;;;15.56;92.85
55277;BME280;41136;51.478;-2.610;2023-08-31T01:45:15;100121.36;;;15.48;93.23
55277;BME280;41136;51.478;-2.610;2023-08-31T01:47:37;100123.75;;;16.00;93.77
55277;BME280;41136;51.478;-2.610;2023-08-31T01:50:03;100121.14;;;16.08;93.50
55277;BME280;41136;51.478;-2.610;2023-08-31T01:52:28;100120.03;;;15.44;94.35
55277;BME280;41136;51.478;-2.610;2023-08-31T01:54:54;100120.13;;;15.67;95.54
55277;BME280;41136;51.478;-2.610;2023-08-31T01:57:20;100116.18;;;15.41;96.71
55277;BME280;41136;51.478;-2.610;2023-08-31T01:59:45;100119.67;;;14.88;97.57
55277;BME280;41136;51.478;-2.610;2023-08-31T02:02:11;100122.71;;;15.41;96.96
55277;BME280;41136;51.478;-2.610;2023-08-31T02:04:36;100122.83;;;15.74;96.93
55277;BME280;41136;51.478;-2.610;2023-08-31T02:07:01;100119.77;;;15.87;96.29
55277;BME280;41136;51.478;-2.610;2023-08-31T02:09:27;100120.24;;;15.78;96.36
55277;BME280;41136;51.478;-2.610;2023-08-31T02:11:53;100114.42;;;15.70;97.02
55277;BME280;41136;51.478;-2.610;2023-08-31T02:14:18;100110.82;;;15.23;97.64
55277;BME280;41136;51.478;-2.610;2023-08-31T02:16:43;100109.19;;;15.78;98.58
55277;BME280;41136;51.478;-2.610;2023-08-31T02:19:08;100109.78;;;14.55;100.00
55277;BME280;41136;51.478;-2.610;2023-08-31T02:21:34;100104.94;;;14.78;100.00
55277;BME280;41136;51.478;-2.610;2023-08-31T02:23:59;100101.19;;;14.57;100.00
55277;BME280;41136;51.478;-2.610;2023-08-31T02:26:24;100103.87;;;15.05;100.00
55277;BME280;41136;51.478;-2.610;2023-08-31T02:28:50;100098.77;;;15.13;100.00
55277;BME280;41136;51.478;-2.610;2023-08-31T02:31:17;100095.93;;;14.68;100.00
55277;BME280;41136;51.478;-2.610;2023-08-31T02:33:40;100089.05;;;15.26;100.00
55277;BME280;41136;51.478;-2.610;2023-08-31T02:36:06;100086.29;;;15.41;100.00
55277;BME280;41136;51.478;-2.610;2023-08-31T02:38:31;100083.68;;;15.49;99.69
55277;BME280;41136;51.478;-2.610;2023-08-31T02:40:57;100077.47;;;14.78;100.00
55277;BME280;41136;51.478;-2.610;2023-08-31T02:43:22;100080.04;;;14.83;100.00
55277;BME280;41136;51.478;-2.610;2023-08-31T02:45:47;100082.12;;;15.26;100.00
55277;BME280;41136;51.478;-2.610;2023-08-31T02:48:13;100083.91;;;15.21;100.00
55277;BME280;41136;51.478;-2.610;2023-08-31T02:50:38;100087.13;;;14.99;100.00
55277;BME280;41136;51.478;-2.610;2023-08-31T02:53:04;100082.17;;;14.71;100.00
55277;BME280;41136;51.478;-2.610;2023-08-31T02:55:28;100076.50;;;14.98;100.00
55277;BME280;41136;51.478;-2.610;2023-08-31T02:57:54;100077.82;;;14.36;100.00
55277;BME280;41136;51.478;-2.610;2023-08-31T03:00:20;100078.50;;;15.12;100.00
55277;BME280;41136;51.478;-2.610;2023-08-31T03:02:45;100077.93;;;15.22;100.00
55277;BME280;41136;51.478;-2.610;2023-08-31T03:05:10;100077.93;;;14.86;100.00
55277;BME280;41136;51.478;-2.610;2023-08-31T03:07:36;100078.43;;;15.15;100.00
55277;BME280;41136;51.478;-2.610;2023-08-31T03:10:01;100076.64;;;14.85;100.00
55277;BME280;41136;51.478;-2.610;2023-08-31T03:12:26;100074.40;;;15.23;100.00
55277;BME280;41136;51.478;-2.610;2023-08-31T03:14:52;100073.88;;;15.30;100.00
55277;BME280;41136;51.478;-2.610;2023-08-31T03:17:17;100076.86;;;15.04;100.00
55277;BME280;41136;51.478;-2.610;2023-08-31T03:19:42;100082.88;;;15.48;100.00
55277;BME280;41136;51.478;-2.610;2023-08-31T03:22:07;100085.30;;;15.36;100.00
55277;BME280;41136;51.478;-2.610;2023-08-31T03:24:33;100080.34;;;15.32;100.00
55277;BME280;41136;51.478;-2.610;2023-08-31T03:26:58;100081.34;;;15.09;100.00
55277;BME280;41136;51.478;-2.610;2023-08-31T03:29:23;100079.09;;;14.95;100.00
55277;BME280;41136;51.478;-2.610;2023-08-31T03:31:49;100073.67;;;14.93;100.00
55277;BME280;41136;51.478;-2.610;2023-08-31T03:34:15;100078.05;;;14.98;100.00
55277;BME280;41136;51.478;-2.610;2023-08-31T03:36:40;100086.04;;;15.29;100.00
55277;BME280;41136;51.478;-2.610;2023-08-31T03:39:05;100087.05;;;15.03;100.00
55277;BME280;41136;51.478;-2.610;2023-08-31T03:41:30;100086.76;;;14.77;100.00
55277;BME280;41136;51.478;-2.610;2023-08-31T03:43:56;100079.88;;;14.55;100.00
55277;BME280;41136;51.478;-2.610;2023-08-31T03:46:21;100073.61;;;15.08;100.00
55277;BME280;41136;51.478;-2.610;2023-08-31T03:48:46;100077.50;;;14.57;100.00
55277;BME280;41136;51.478;-2.610;2023-08-31T03:51:12;100075.96;;;14.91;100.00
55277;BME280;41136;51.478;-2.610;2023-08-31T03:53:37;100075.68;;;14.65;100.00
55277;BME280;41136;51.478;-2.610;2023-08-31T03:56:03;100074.41;;;14.86;100.00
55277;BME280;41136;51.478;-2.610;2023-08-31T03:58:28;100080.94;;;15.40;100.00
55277;BME280;41136;51.478;-2.610;2023-08-31T04:00:53;100083.27;;;15.30;100.00
55277;BME280;41136;51.478;-2.610;2023-08-31T04:04:50;100079.52;;;15.66;98.13
55277;BME280;41136;51.478;-2.610;2023-08-31T04:07:15;100078.46;;;15.78;96.88
55277;BME280;41136;51.478;-2.610;2023-08-31T04:09:41;100073.56;;;15.05;98.44
55277;BME280;41136;51.478;-2.610;2023-08-31T04:12:06;100072.75;;;15.50;96.94
55277;BME280;41136;51.478;-2.610;2023-08-31T04:14:31;100077.58;;;15.96;97.70
55277;BME280;41136;51.478;-2.610;2023-08-31T04:16:57;100078.52;;;16.40;97.11
55277;BME280;41136;51.478;-2.610;2023-08-31T04:19:23;100083.64;;;16.39;97.48
55277;BME280;41136;51.478;-2.610;2023-08-31T04:21:48;100079.07;;;16.13;97.50
55277;BME280;41136;51.478;-2.610;2023-08-31T04:24:13;100078.77;;;16.28;98.05
55277;BME280;41136;51.478;-2.610;2023-08-31T04:26:38;100078.30;;;15.98;97.93
55277;BME280;41136;51.478;-2.610;2023-08-31T04:29:04;100076.13;;;16.62;96.68
55277;BME280;41136;51.478;-2.610;2023-08-31T04:31:29;100074.20;;;15.18;99.93
55277;BME280;41136;51.478;-2.610;2023-08-31T04:33:54;100077.21;;;14.92;100.00
55277;BME280;41136;51.478;-2.610;2023-08-31T04:36:20;100076.41;;;15.74;99.87
55277;BME280;41136;51.478;-2.610;2023-08-31T04:38:45;100078.48;;;15.54;100.00
55277;BME280;41136;51.478;-2.610;2023-08-31T04:41:10;100076.30;;;15.59;100.00
55277;BME280;41136;51.478;-2.610;2023-08-31T04:43:36;100076.53;;;15.81;100.00
55277;BME280;41136;51.478;-2.610;2023-08-31T04:46:01;100074.90;;;15.75;99.82
55277;BME280;41136;51.478;-2.610;2023-08-31T04:48:26;100074.74;;;15.29;100.00
55277;BME280;41136;51.478;-2.610;2023-08-31T04:50:56;100076.82;;;14.82;100.00
55277;BME280;41136;51.478;-2.610;2023-08-31T04:53:17;100076.87;;;14.71;100.00
55277;BME280;41136;51.478;-2.610;2023-08-31T04:55:43;100076.77;;;15.72;100.00
55277;BME280;41136;51.478;-2.610;2023-08-31T04:58:08;100077.54;;;16.13;100.00
55277;BME280;41136;51.478;-2.610;2023-08-31T05:00:33;100076.17;;;15.59;100.00
55277;BME280;41136;51.478;-2.610;2023-08-31T05:02:59;100080.76;;;15.44;100.00
55277;BME280;41136;51.478;-2.610;2023-08-31T05:05:24;100079.28;;;15.43;100.00
55277;BME280;41136;51.478;-2.610;2023-08-31T05:07:49;100077.06;;;15.49;100.00
55277;BME280;41136;51.478;-2.610;2023-08-31T05:10:15;100070.98;;;15.47;100.00
55277;BME280;41136;51.478;-2.610;2023-08-31T05:12:40;100065.70;;;14.82;100.00
55277;BME280;41136;51.478;-2.610;2023-08-31T05:15:07;100064.28;;;15.23;100.00
55277;BME280;41136;51.478;-2.610;2023-08-31T05:17:31;100061.62;;;14.97;100.00
55277;BME280;41136;51.478;-2.610;2023-08-31T05:19:57;100061.15;;;15.89;100.00
55277;BME280;41136;51.478;-2.610;2023-08-31T05:22:22;100063.57;;;15.65;100.00
55277;BME280;41136;51.478;-2.610;2023-08-31T05:24:48;100062.56;;;15.38;100.00
55277;BME280;41136;51.478;-2.610;2023-08-31T05:27:12;100058.41;;;15.45;100.00
55277;BME280;41136;51.478;-2.610;2023-08-31T05:29:38;100057.97;;;15.30;100.00
55277;BME280;41136;51.478;-2.610;2023-08-31T05:32:03;100056.98;;;14.61;100.00
55277;BME280;41136;51.478;-2.610;2023-08-31T05:34:28;100059.13;;;14.90;100.00
55277;BME280;41136;51.478;-2.610;2023-08-31T05:36:54;100060.31;;;14.94;100.00
55277;BME280;41136;51.478;-2.610;2023-08-31T05:39:19;100060.30;;;14.30;100.00
55277;BME280;41136;51.478;-2.610;2023-08-31T05:41:44;100058.89;;;14.49;100.00
55277;BME280;41136;51.478;-2.610;2023-08-31T05:44:10;100059.28;;;14.70;100.00
55277;BME280;41136;51.478;-2.610;2023-08-31T05:46:35;100056.96;;;14.88;100.00
55277;BME280;41136;51.478;-2.610;2023-08-31T05:49:01;100056.52;;;14.75;100.00
55277;BME280;41136;51.478;-2.610;2023-08-31T05:51:26;100051.30;;;14.57;100.00
55277;BME280;41136;51.478;-2.610;2023-08-31T05:53:52;100052.20;;;14.60;100.00
55277;BME280;41136;51.478;-2.610;2023-08-31T05:56:17;100054.58;;;15.06;100.00
55277;BME280;41136;51.478;-2.610;2023-08-31T05:58:42;100054.77;;;15.12;100.00
55277;BME280;41136;51.478;-2.610;2023-08-31T06:01:07;100055.57;;;14.86;100.00
55277;BME280;41136;51.478;-2.610;2023-08-31T06:03:33;100053.71;;;14.84;100.00
55277;BME280;41136;51.478;-2.610;2023-08-31T06:05:58;100057.26;;;14.21;100.00
55277;BME280;41136;51.478;-2.610;2023-08-31T06:08:23;100056.65;;;15.08;100.00
55277;BME280;41136;51.478;-2.610;2023-08-31T06:10:49;100060.41;;;14.56;100.00
55277;BME280;41136;51.478;-2.610;2023-08-31T06:13:14;100060.42;;;15.29;100.00
55277;BME280;41136;51.478;-2.610;2023-08-31T06:15:39;100059.28;;;15.33;100.00
55277;BME280;41136;51.478;-2.610;2023-08-31T06:18:05;100062.42;;;14.82;100.00
55277;BME280;41136;51.478;-2.610;2023-08-31T06:20:30;100065.90;;;14.47;100.00
55277;BME280;41136;51.478;-2.610;2023-08-31T06:22:55;100068.24;;;15.35;100.00
55277;BME280;41136;51.478;-2.610;2023-08-31T06:25:21;100066.62;;;14.58;100.00
55277;BME280;41136;51.478;-2.610;2023-08-31T06:27:47;100068.46;;;14.72;100.00
55277;BME280;41136;51.478;-2.610;2023-08-31T06:30:12;100067.67;;;14.55;100.00
55277;BME280;41136;51.478;-2.610;2023-08-31T06:32:37;100069.35;;;15.03;100.00
55277;BME280;41136;51.478;-2.610;2023-08-31T06:35:02;100071.18;;;15.38;100.00
55277;BME280;41136;51.478;-2.610;2023-08-31T06:37:28;100071.63;;;15.11;100.00
55277;BME280;41136;51.478;-2.610;2023-08-31T06:39:53;100076.60;;;14.52;100.00
55277;BME280;41136;51.478;-2.610;2023-08-31T06:42:19;100075.30;;;14.26;100.00
55277;BME280;41136;51.478;-2.610;2023-08-31T06:44:44;100077.44;;;14.56;100.00
55277;BME280;41136;51.478;-2.610;2023-08-31T06:47:09;100078.33;;;14.58;100.00
55277;BME280;41136;51.478;-2.610;2023-08-31T06:49:34;100077.13;;;14.56;100.00
55277;BME280;41136;51.478;-2.610;2023-08-31T06:52:00;100077.46;;;14.67;100.00
55277;BME280;41136;51.478;-2.610;2023-08-31T06:54:25;100081.37;;;14.77;100.00
55277;BME280;41136;51.478;-2.610;2023-08-31T06:56:50;100078.72;;;15.13;100.00
55277;BME280;41136;51.478;-2.610;2023-08-31T06:59:16;100078.74;;;15.12;100.00
55277;BME280;41136;51.478;-2.610;2023-08-31T07:01:41;100076.95;;;15.35;100.00
55277;BME280;41136;51.478;-2.610;2023-08-31T07:04:06;100071.97;;;15.82;100.00
55277;BME280;41136;51.478;-2.610;2023-08-31T07:06:34;100069.25;;;15.79;100.00
55277;BME280;41136;51.478;-2.610;2023-08-31T07:08:57;100071.16;;;15.30;100.00
55277;BME280;41136;51.478;-2.610;2023-08-31T07:11:23;100067.60;;;15.27;100.00
55277;BME280;41136;51.478;-2.610;2023-08-31T07:13:48;100067.27;;;14.61;100.00
55277;BME280;41136;51.478;-2.610;2023-08-31T07:16:13;100065.43;;;14.48;100.00
55277;BME280;41136;51.478;-2.610;2023-08-31T07:18:38;100066.39;;;14.39;100.00
55277;BME280;41136;51.478;-2.610;2023-08-31T07:21:03;100070.66;;;13.83;100.00
55277;BME280;41136;51.478;-2.610;2023-08-31T07:23:29;100070.10;;;14.52;100.00
55277;BME280;41136;51.478;-2.610;2023-08-31T07:25:56;100070.16;;;14.76;100.00
55277;BME280;41136;51.478;-2.610;2023-08-31T07:28:19;100066.13;;;14.64;100.00
55277;BME280;41136;51.478;-2.610;2023-08-31T07:30:45;100063.19;;;14.43;100.00
55277;BME280;41136;51.478;-2.610;2023-08-31T07:33:10;100064.31;;;14.55;100.00
55277;BME280;41136;51.478;-2.610;2023-08-31T07:35:35;100060.70;;;14.45;100.00
55277;BME280;41136;51.478;-2.610;2023-08-31T07:38:01;100062.17;;;14.21;100.00
55277;BME280;41136;51.478;-2.610;2023-08-31T07:40:26;100061.77;;;13.91;100.00
55277;BME280;41136;51.478;-2.610;2023-08-31T07:42:51;100057.94;;;14.64;100.00
55277;BME280;41136;51.478;-2.610;2023-08-31T07:45:17;100057.39;;;15.10;100.00
55277;BME280;41136;51.478;-2.610;2023-08-31T07:47:42;100055.00;;;14.68;100.00
55277;BME280;41136;51.478;-2.610;2023-08-31T07:50:08;100053.81;;;14.94;100.00
55277;BME280;41136;51.478;-2.610;2023-08-31T07:52:32;100054.22;;;14.63;100.00
55277;BME280;41136;51.478;-2.610;2023-08-31T07:54:58;100048.73;;;15.23;100.00
55277;BME280;41136;51.478;-2.610;2023-08-31T07:57:23;100049.84;;;14.53;100.00
55277;BME280;41136;51.478;-2.610;2023-08-31T07:59:48;100050.78;;;14.56;100.00
55277;BME280;41136;51.478;-2.610;2023-08-31T08:02:14;100049.90;;;14.34;100.00
55277;BME280;41136;51.478;-2.610;2023-08-31T08:04:39;100048.91;;;14.14;100.00
55277;BME280;41136;51.478;-2.610;2023-08-31T08:07:04;100046.44;;;14.97;100.00
55277;BME280;41136;51.478;-2.610;2023-08-31T08:09:30;100046.16;;;14.79;100.00
55277;BME280;41136;51.478;-2.610;2023-08-31T08:11:55;100048.21;;;14.79;100.00
55277;BME280;41136;51.478;-2.610;2023-08-31T08:14:21;100043.60;;;14.84;100.00
55277;BME280;41136;51.478;-2.610;2023-08-31T08:16:46;100042.90;;;14.82;100.00
55277;BME280;41136;51.478;-2.610;2023-08-31T08:19:11;100040.69;;;14.76;100.00
55277;BME280;41136;51.478;-2.610;2023-08-31T08:21:37;100042.60;;;14.04;100.00
55277;BME280;41136;51.478;-2.610;2023-08-31T08:24:02;100042.87;;;15.15;100.00
55277;BME280;41136;51.478;-2.610;2023-08-31T08:26:27;100048.95;;;14.33;100.00
55277;BME280;41136;51.478;-2.610;2023-08-31T08:28:53;100045.10;;;15.55;100.00
55277;BME280;41136;51.478;-2.610;2023-08-31T08:31:18;100046.87;;;15.02;100.00
55277;BME280;41136;51.478;-2.610;2023-08-31T08:33:43;100046.07;;;13.79;100.00
55277;BME280;41136;51.478;-2.610;2023-08-31T08:36:09;100049.37;;;14.03;100.00
55277;BME280;41136;51.478;-2.610;2023-08-31T08:38:34;100051.51;;;15.06;100.00
55277;BME280;41136;51.478;-2.610;2023-08-31T08:41:04;100052.34;;;14.94;100.00
55277;BME280;41136;51.478;-2.610;2023-08-31T08:43:26;100053.92;;;15.32;100.00
55277;BME280;41136;51.478;-2.610;2023-08-31T08:45:51;100050.99;;;15.31;100.00
55277;BME280;41136;51.478;-2.610;2023-08-31T08:48:16;100047.69;;;15.11;100.00
55277;BME280;41136;51.478;-2.610;2023-08-31T08:50:41;100048.41;;;15.29;100.00
55277;BME280;41136;51.478;-2.610;2023-08-31T08:53:06;100046.73;;;15.44;100.00
55277;BME280;41136;51.478;-2.610;2023-08-31T08:55:32;100044.28;;;15.59;100.00
55277;BME280;41136;51.478;-2.610;2023-08-31T08:57:58;100042.05;;;15.12;100.00
55277;BME280;41136;51.478;-2.610;2023-08-31T09:00:22;100042.04;;;14.41;100.00
55277;BME280;41136;51.478;-2.610;2023-08-31T09:02:48;100043.07;;;15.33;100.00
55277;BME280;41136;51.478;-2.610;2023-08-31T09:05:13;100045.16;;;15.19;100.00
55277;BME280;41136;51.478;-2.610;2023-08-31T09:07:46;100049.68;;;14.83;100.00
55277;BME280;41136;51.478;-2.610;2023-08-31T09:10:05;100050.37;;;14.26;100.00
55277;BME280;41136;51.478;-2.610;2023-08-31T09:12:29;100051.41;;;14.76;100.00
55277;BME280;41136;51.478;-2.610;2023-08-31T09:14:58;100054.39;;;14.18;100.00
55277;BME280;41136;51.478;-2.610;2023-08-31T09:17:23;100050.33;;;15.24;100.00
55277;BME280;41136;51.478;-2.610;2023-08-31T09:19:45;100051.76;;;14.79;100.00
55277;BME280;41136;51.478;-2.610;2023-08-31T09:22:10;100047.38;;;14.99;100.00
55277;BME280;41136;51.478;-2.610;2023-08-31T09:24:41;100044.86;;;13.96;100.00
55277;BME280;41136;51.478;-2.610;2023-08-31T09:27:01;100043.01;;;14.06;100.00
55277;BME280;41136;51.478;-2.610;2023-08-31T09:29:27;100038.45;;;14.09;100.00
55277;BME280;41136;51.478;-2.610;2023-08-31T09:31:52;100041.05;;;13.49;100.00
55277;BME280;41136;51.478;-2.610;2023-08-31T09:34:18;100039.52;;;12.72;100.00
55277;BME280;41136;51.478;-2.610;2023-08-31T09:36:43;100040.52;;;13.62;100.00
55277;BME280;41136;51.478;-2.610;2023-08-31T09:39:08;100039.41;;;13.42;100.00
55277;BME280;41136;51.478;-2.610;2023-08-31T09:41:33;100039.05;;;13.59;100.00
55277;BME280;41136;51.478;-2.610;2023-08-31T09:46:24;100039.28;;;13.87;100.00
55277;BME280;41136;51.478;-2.610;2023-08-31T09:48:49;100035.05;;;14.37;100.00
55277;BME280;41136;51.478;-2.610;2023-08-31T09:51:15;100030.29;;;14.49;100.00
55277;BME280;41136;51.478;-2.610;2023-08-31T09:53:41;100029.69;;;14.41;100.00
55277;BME280;41136;51.478;-2.610;2023-08-31T09:56:06;100031.15;;;14.37;100.00
55277;BME280;41136;51.478;-2.610;2023-08-31T09:58:31;100033.11;;;13.34;100.00
55277;BME280;41136;51.478;-2.610;2023-08-31T10:00:56;100029.01;;;13.31;100.00
55277;BME280;41136;51.478;-2.610;2023-08-31T10:03:21;100028.49;;;12.75;100.00
55277;BME280;41136;51.478;-2.610;2023-08-31T10:05:47;100029.31;;;13.55;100.00
55277;BME280;41136;51.478;-2.610;2023-08-31T10:08:12;100027.68;;;12.79;100.00
55277;BME280;41136;51.478;-2.610;2023-08-31T10:10:37;100024.85;;;12.12;100.00
55277;BME280;41136;51.478;-2.610;2023-08-31T10:13:04;100023.33;;;12.80;100.00
55277;BME280;41136;51.478;-2.610;2023-08-31T10:15:32;100025.46;;;13.29;100.00
55277;BME280;41136;51.478;-2.610;2023-08-31T10:17:53;100027.65;;;13.27;100.00
55277;BME280;41136;51.478;-2.610;2023-08-31T10:20:18;100022.12;;;13.89;100.00
55277;BME280;41136;51.478;-2.610;2023-08-31T10:22:44;100016.29;;;12.89;100.00
55277;BME280;41136;51.478;-2.610;2023-08-31T10:25:09;100019.34;;;13.31;100.00
55277;BME280;41136;51.478;-2.610;2023-08-31T10:27:39;100015.96;;;13.52;100.00
55277;BME280;41136;51.478;-2.610;2023-08-31T10:32:25;100018.73;;;13.29;100.00
55277;BME280;41136;51.478;-2.610;2023-08-31T10:37:20;100022.05;;;12.83;100.00
55277;BME280;41136;51.478;-2.610;2023-08-31T10:39:42;100023.69;;;13.06;100.00
55277;BME280;41136;51.478;-2.610;2023-08-31T10:42:07;100024.20;;;13.37;100.00
55277;BME280;41136;51.478;-2.610;2023-08-31T10:44:34;100022.46;;;13.69;100.00
55277;BME280;41136;51.478;-2.610;2023-08-31T10:47:02;100019.42;;;14.02;100.00
55277;BME280;41136;51.478;-2.610;2023-08-31T10:49:24;100017.73;;;12.92;100.00
55277;BME280;41136;51.478;-2.610;2023-08-31T10:51:53;100013.63;;;12.58;100.00
55277;BME280;41136;51.478;-2.610;2023-08-31T10:54:20;100011.54;;;12.32;100.00
55277;BME280;41136;51.478;-2.610;2023-08-31T10:59:05;100019.09;;;12.62;100.00
55277;BME280;41136;51.478;-2.610;2023-08-31T11:03:57;100017.99;;;13.28;100.00
55277;BME280;41136;51.478;-2.610;2023-08-31T11:06:21;100011.78;;;13.19;100.00
55277;BME280;41136;51.478;-2.610;2023-08-31T11:08:47;100016.05;;;13.62;100.00
55277;BME280;41136;51.478;-2.610;2023-08-31T11:11:12;100014.20;;;14.28;100.00
55277;BME280;41136;51.478;-2.610;2023-08-31T11:13:37;100014.44;;;13.46;100.00
55277;BME280;41136;51.478;-2.610;2023-08-31T11:16:03;100017.31;;;13.54;100.00
55277;BME280;41136;51.478;-2.610;2023-08-31T11:18:28;100017.24;;;14.67;100.00
55277;BME280;41136;51.478;-2.610;2023-08-31T11:20:53;100014.02;;;13.63;100.00
55277;BME280;41136;51.478;-2.610;2023-08-31T11:23:19;100007.28;;;14.87;100.00
55277;BME280;41136;51.478;-2.610;2023-08-31T11:25:44;100007.23;;;14.40;100.00
55277;BME280;41136;51.478;-2.610;2023-08-31T11:28:10;100008.07;;;14.19;100.00
55277;BME280;41136;51.478;-2.610;2023-08-31T11:30:36;100004.66;;;15.31;100.00
55277;BME280;41136;51.478;-2.610;2023-08-31T11:33:02;100000.74;;;14.06;100.00
55277;BME280;41136;51.478;-2.610;2023-08-31T11:35:31;99995.49;;;14.50;100.00
55277;BME280;41136;51.478;-2.610;2023-08-31T11:37:54;99999.64;;;14.14;100.00
55277;BME280;41136;51.478;-2.610;2023-08-31T11:40:16;99994.05;;;13.60;100.00
55277;BME280;41136;51.478;-2.610;2023-08-31T11:42:42;99991.72;;;13.94;100.00
55277;BME280;41136;51.478;-2.610;2023-08-31T11:45:08;99989.16;;;12.88;100.00
55277;BME280;41136;51.478;-2.610;2023-08-31T11:47:32;99991.22;;;13.33;100.00
55277;BME280;41136;51.478;-2.610;2023-08-31T11:49:58;99989.79;;;14.54;100.00
55277;BME280;41136;51.478;-2.610;2023-08-31T11:52:23;99995.03;;;14.48;100.00
55277;BME280;41136;51.478;-2.610;2023-08-31T11:54:52;99993.42;;;14.29;100.00
55277;BME280;41136;51.478;-2.610;2023-08-31T11:57:13;99989.48;;;14.31;100.00
55277;BME280;41136;51.478;-2.610;2023-08-31T11:59:39;99988.22;;;13.67;100.00
55277;BME280;41136;51.478;-2.610;2023-08-31T12:02:06;99987.92;;;14.70;100.00
55277;BME280;41136;51.478;-2.610;2023-08-31T12:04:29;99988.18;;;14.12;100.00
55277;BME280;41136;51.478;-2.610;2023-08-31T12:07:01;99990.50;;;13.78;100.00
55277;BME280;41136;51.478;-2.610;2023-08-31T12:09:20;99988.57;;;14.45;100.00
55277;BME280;41136;51.478;-2.610;2023-08-31T12:11:49;99989.55;;;15.00;100.00
55277;BME280;41136;51.478;-2.610;2023-08-31T12:14:18;99987.90;;;14.09;100.00
55277;BME280;41136;51.478;-2.610;2023-08-31T12:16:36;99984.65;;;14.20;100.00
55277;BME280;41136;51.478;-2.610;2023-08-31T12:19:02;99983.33;;;14.74;100.00
55277;BME280;41136;51.478;-2.610;2023-08-31T12:21:26;99978.85;;;14.71;100.00
55277;BME280;41136;51.478;-2.610;2023-08-31T12:23:52;99974.37;;;15.05;100.00
55277;BME280;41136;51.478;-2.610;2023-08-31T12:26:17;99973.61;;;14.83;100.00
55277;BME280;41136;51.478;-2.610;2023-08-31T12:28:42;99972.13;;;14.17;100.00
55277;BME280;41136;51.478;-2.610;2023-08-31T12:31:08;99972.90;;;14.26;100.00
55277;BME280;41136;51.478;-2.610;2023-08-31T12:33:33;99972.20;;;14.39;100.00
55277;BME280;41136;51.478;-2.610;2023-08-31T12:35:58;99967.84;;;14.66;100.00
55277;BME280;41136;51.478;-2.610;2023-08-31T12:38:23;99970.92;;;14.76;100.00
55277;BME280;41136;51.478;-2.610;2023-08-31T12:40:49;99973.42;;;14.72;100.00